Time;durP1;ratioP1;P1;durP2;ratioP2;P2;SDS_P1;SDS_P2;PMS_P1;PMS_P2;Temp;Humidity;BMP_temperature;BMP_pressure;BME280_temperature;BME280_humidity;BME280_pressure;Samples;Min_cycle;Max_cycle;Signal;HPM_P1;HPM_P2
2022/01/10 05:02:41;;;;;;;60.65;25.58;;;;;;;-2.58;100.00;99242.09;4503340;31;141407;-76
2022/01/10 05:05:31;;;;;;;;;;;;;;;-2.37;100.00;99246.03;4485845;31;32887;-77
2022/01/10 05:08:17;;;;;;;53.78;23.25;;;;;;;-2.10;98.94;99245.53;4488752;32;35458;-77
2022/01/10 05:11:04;;;;;;;52.42;23.60;;;;;;;-1.91;96.95;99251.53;4492477;32;34959;-77
2022/01/10 05:13:53;;;;;;;50.67;24.27;;;;;;;-1.50;95.65;99253.13;4480719;32;34046;-80
2022/01/10 05:16:40;;;;;;;49.92;25.42;;;;;;;-0.85;92.81;99259.00;4493172;31;35064;-80
2022/01/10 05:19:27;;;;;;;54.55;26.12;;;;;;;-0.20;88.96;99255.63;4491974;31;35147;-80
2022/01/10 05:22:15;;;;;;;56.92;26.33;;;;;;;-0.46;89.33;99260.69;4475352;32;35961;-80
2022/01/10 05:25:02;;;;;;;54.83;27.05;;;;;;;-1.29;91.38;99258.84;4483229;32;35495;-80
2022/01/10 05:27:49;;;;;;;52.33;26.02;;;;;;;-0.51;88.52;99259.81;4483352;32;34230;-80
2022/01/10 05:30:37;;;;;;;55.85;27.15;;;;;;;-0.32;88.74;99263.00;4476149;31;35512;-80
2022/01/10 05:33:27;;;;;;;53.70;26.70;;;;;;;-0.93;92.29;99266.44;4482202;32;34731;-80
2022/01/10 05:36:19;;;;;;;53.90;26.90;;;;;;;-1.63;95.17;99267.63;4492388;31;34015;-80
2022/01/10 05:39:07;;;;;;;53.08;25.58;;;;;;;-1.40;92.94;99268.59;4492049;32;34284;-80
2022/01/10 05:41:54;;;;;;;56.22;27.02;;;;;;;-1.59;95.56;99260.75;4489629;32;34577;-80
2022/01/10 05:44:40;;;;;;;56.75;27.75;;;;;;;-1.33;94.70;99271.16;4484129;31;35001;-80
2022/01/10 05:47:26;;;;;;;58.00;27.00;;;;;;;-1.11;92.27;99265.84;4484114;32;34188;-80
2022/01/10 05:50:31;;;;;;;54.33;27.15;;;;;;;-0.94;90.69;99280.12;4481382;32;34239;-79
2022/01/10 05:53:23;;;;;;;54.22;26.10;;;;;;;-0.96;91.94;99280.38;4486726;31;34534;-79
2022/01/10 05:56:09;;;;;;;56.85;27.00;;;;;;;-0.41;88.30;99280.66;4483653;32;34916;-80
2022/01/10 05:59:02;;;;;;;55.83;27.13;;;;;;;-1.26;91.82;99279.84;4480881;32;34087;-80
2022/01/10 06:01:48;;;;;;;52.53;26.40;;;;;;;-0.33;87.82;99281.06;4480130;31;34194;-80
2022/01/10 06:04:35;;;;;;;58.45;28.00;;;;;;;-0.93;90.18;99271.81;4473813;32;35194;-80
2022/01/10 06:07:22;;;;;;;58.25;27.70;;;;;;;-1.16;90.59;99283.53;4487583;31;35776;-78
2022/01/10 06:10:08;;;;;;;62.78;30.27;;;;;;;-0.64;89.41;99284.37;4491481;31;34007;-79
2022/01/10 06:12:55;;;;;;;61.17;30.40;;;;;;;-1.24;91.61;99283.13;4477527;32;35033;-80
2022/01/10 06:15:42;;;;;;;61.00;29.30;;;;;;;-1.61;92.30;99287.03;4471196;32;35207;-80
2022/01/10 06:18:29;;;;;;;61.47;28.87;;;;;;;-1.21;91.82;99288.81;4478465;31;34889;-81
2022/01/10 06:21:15;;;;;;;60.50;29.48;;;;;;;-0.17;87.21;99297.41;4472754;32;34517;-80
2022/01/10 06:24:02;;;;;;;58.28;28.85;;;;;;;-0.81;88.61;99292.44;4481474;32;33844;-80
2022/01/10 06:26:49;;;;;;;59.08;28.52;;;;;;;-0.50;87.92;99294.53;4476109;32;35503;-80
2022/01/10 06:29:36;;;;;;;51.33;26.80;;;;;;;-0.09;84.36;99300.47;4469795;32;35440;-80
2022/01/10 06:32:22;;;;;;;52.80;25.98;;;;;;;-0.77;87.71;99304.34;4475190;32;34534;-81
2022/01/10 06:35:09;;;;;;;57.83;26.48;;;;;;;-0.59;86.37;99301.41;4460041;32;34072;-81
2022/01/10 06:37:55;;;;;;;58.92;27.13;;;;;;;-0.71;87.46;99306.06;4477746;31;34600;-80
2022/01/10 06:40:42;;;;;;;58.30;28.27;;;;;;;-0.87;88.29;99306.87;4468213;32;34926;-81
2022/01/10 06:43:28;;;;;;;72.80;38.70;;;;;;;-0.41;86.10;99312.97;4470888;32;34146;-79
2022/01/10 06:46:15;;;;;;;66.70;33.05;;;;;;;0.04;82.65;99320.88;4478817;31;34467;-79
2022/01/10 06:49:02;;;;;;;74.80;35.10;;;;;;;-1.00;87.56;99321.44;4480821;32;35031;-79
2022/01/10 06:51:49;;;;;;;97.80;47.60;;;;;;;-0.46;86.63;99321.75;4465246;31;34940;-78
2022/01/10 06:54:36;;;;;;;81.12;39.70;;;;;;;-0.16;84.49;99326.78;4459322;32;34456;-77
2022/01/10 06:57:22;;;;;;;64.43;30.75;;;;;;;-0.37;84.92;99324.84;4469948;32;33785;-79
2022/01/10 07:00:10;;;;;;;60.15;29.58;;;;;;;-0.84;87.14;99330.59;4475336;31;34191;-79
2022/01/10 07:02:57;;;;;;;93.03;44.30;;;;;;;0.17;83.84;99336.66;4479040;31;33763;-78
2022/01/10 07:05:44;;;;;;;68.07;34.08;;;;;;;0.31;82.18;99342.47;4470418;32;33309;-78
2022/01/10 07:08:30;;;;;;;66.53;34.00;;;;;;;1.12;78.11;99336.34;4471892;32;35254;-79
2022/01/10 07:21:10;;;;;;;54.47;24.55;;;;;;;-0.68;83.67;99351.31;4497526;31;142065;-79
2022/01/10 07:23:57;;;;;;;56.70;26.20;;;;;;;-0.36;84.02;99358.81;4470240;31;33964;-81
2022/01/10 07:26:44;;;;;;;61.65;26.65;;;;;;;0.17;80.98;99368.16;4489135;31;34812;-81
2022/01/10 07:29:30;;;;;;;52.97;26.92;;;;;;;0.57;78.93;99369.72;4482495;32;34928;-80
2022/01/10 07:32:17;;;;;;;52.90;25.88;;;;;;;0.52;78.20;99380.47;4489730;31;34140;-79
2022/01/10 07:35:04;;;;;;;47.15;25.45;;;;;;;0.26;77.96;99376.63;4491005;32;34224;-79
2022/01/10 07:37:51;;;;;;;49.97;25.12;;;;;;;-0.66;80.76;99381.47;4490274;32;34503;-79
2022/01/10 07:40:37;;;;;;;53.75;28.08;;;;;;;0.27;78.58;99384.47;4489458;31;34628;-78
2022/01/10 07:43:23;;;;;;;59.58;29.92;;;;;;;-0.20;79.35;99384.88;4474655;32;35123;-77
2022/01/10 07:46:12;;;;;;;53.83;26.60;;;;;;;0.89;76.74;99392.22;4485032;31;33832;-74
2022/01/10 07:48:59;;;;;;;55.40;27.73;;;;;;;1.69;73.17;99383.50;4484048;31;34442;-75
2022/01/10 07:51:45;;;;;;;58.08;28.55;;;;;;;1.72;72.45;99386.50;4483041;32;35734;-75
2022/01/10 07:54:31;;;;;;;55.80;27.73;;;;;;;1.95;71.60;99392.59;4471043;31;34974;-77
2022/01/10 07:57:18;;;;;;;56.83;27.27;;;;;;;1.98;71.16;99400.19;4487145;31;35163;-82
2022/01/10 08:00:05;;;;;;;57.42;29.10;;;;;;;2.03;69.99;99389.41;4477059;32;35509;-81
2022/01/10 08:02:57;;;;;;;54.85;26.92;;;;;;;2.24;69.65;99395.75;4482014;31;35821;-79
2022/01/10 08:05:43;;;;;;;55.38;27.23;;;;;;;2.38;69.07;99393.38;4468484;31;34798;-79
2022/01/10 08:08:30;;;;;;;52.10;27.80;;;;;;;2.39;68.30;99397.72;4477061;31;34369;-79
2022/01/10 08:11:16;;;;;;;50.45;25.98;;;;;;;2.40;67.59;99402.06;4466519;31;34210;-78
2022/01/10 08:14:03;;;;;;;56.45;27.75;;;;;;;2.69;66.53;99405.97;4489753;31;34629;-79
2022/01/10 08:16:50;;;;;;;49.72;26.35;;;;;;;1.87;69.39;99401.19;4481795;32;35320;-78
2022/01/10 08:19:36;;;;;;;50.10;26.77;;;;;;;2.44;67.06;99403.16;4485391;31;34300;-78
2022/01/10 08:22:23;;;;;;;51.60;25.55;;;;;;;2.37;67.09;99405.28;4484257;31;34536;-78
2022/01/10 08:25:09;;;;;;;48.92;25.08;;;;;;;3.08;64.43;99405.56;4484864;31;35758;-79
2022/01/10 08:27:56;;;;;;;50.95;25.90;;;;;;;3.10;64.44;99403.41;4487501;31;34890;-80
2022/01/10 08:30:42;;;;;;;49.95;26.23;;;;;;;1.66;69.54;99401.03;4485657;32;34261;-80
2022/01/10 08:33:29;;;;;;;49.70;27.35;;;;;;;2.51;66.80;99416.44;4475030;31;34500;-81
2022/01/10 08:36:15;;;;;;;48.55;24.27;;;;;;;2.16;66.34;99410.59;4479787;32;34961;-85
2022/01/10 08:39:03;;;;;;;49.00;25.33;;;;;;;1.80;69.29;99410.34;4479443;31;35498;-84
2022/01/10 08:41:49;;;;;;;47.10;23.15;;;;;;;3.05;65.71;99411.50;4464548;32;33822;-84
2022/01/10 08:44:36;;;;;;;44.03;23.60;;;;;;;3.46;63.82;99424.28;4480119;32;35589;-83
2022/01/10 14:25:57;;;;;;;10.35;3.92;;;;;;;3.19;47.38;99654.66;4508833;31;146315;-75
2022/01/10 14:28:44;;;;;;;7.82;3.78;;;;;;;3.49;46.71;99660.22;4507053;31;34851;-81
2022/01/10 14:31:31;;;;;;;8.77;3.60;;;;;;;3.65;46.09;99660.31;4502362;31;35606;-76
2022/01/10 14:34:18;;;;;;;7.03;3.50;;;;;;;3.83;45.55;99659.84;4488175;31;36150;-77
2022/01/10 14:37:05;;;;;;;7.85;3.35;;;;;;;4.22;44.79;99664.84;4502791;31;33532;-76
2022/01/10 14:43:35;;;;;;;9.55;3.62;;;;;;;4.15;44.85;99666.97;4497913;31;34691;-75
2022/01/10 14:46:22;;;;;;;25.67;12.45;;;;;;;3.96;45.57;99680.22;4492380;31;34928;-78
2022/01/10 14:49:08;;;;;;;25.37;12.77;;;;;;;3.84;53.04;99683.13;4501478;31;34465;-78
2022/01/10 14:51:55;;;;;;;25.12;13.48;;;;;;;3.28;56.79;99685.59;4485072;31;34247;-78
2022/01/10 14:54:41;;;;;;;31.90;14.35;;;;;;;3.65;56.12;99695.56;4501719;31;34578;-75
2022/01/10 14:57:28;;;;;;;27.77;14.00;;;;;;;3.76;57.22;99697.22;4490381;31;35023;-75
2022/01/10 15:00:15;;;;;;;30.27;15.18;;;;;;;4.04;56.44;99704.94;4486513;31;35427;-75
2022/01/10 15:03:01;;;;;;;29.63;14.60;;;;;;;2.96;60.29;99716.25;4500431;31;34152;-77
2022/01/10 15:05:50;;;;;;;30.02;14.63;;;;;;;4.13;56.60;99716.06;4502724;31;34643;-77
2022/01/10 15:08:39;;;;;;;29.25;14.87;;;;;;;3.59;57.47;99721.81;4487397;31;33538;-76
2022/01/10 15:11:25;;;;;;;30.42;15.55;;;;;;;2.90;61.08;99730.78;4486240;31;34548;-75
2022/01/10 15:14:15;;;;;;;33.38;15.25;;;;;;;2.80;61.58;99733.44;4495324;31;34186;-79
2022/01/10 15:17:14;;;;;;;30.25;15.30;;;;;;;2.61;62.09;99732.97;4477050;31;35434;-80
2022/01/10 15:20:08;;;;;;;29.95;15.52;;;;;;;2.91;62.02;99740.56;4483558;31;34215;-79
2022/01/10 15:23:00;;;;;;;33.65;15.18;;;;;;;3.33;60.14;99746.03;4480489;31;35388;-80
2022/01/10 15:26:06;;;;;;;38.00;18.62;;;;;;;2.52;63.04;99745.34;4476071;31;34669;-79
2022/01/10 15:28:53;;;;;;;37.97;18.58;;;;;;;2.39;63.34;99760.06;4483539;31;34387;-77
2022/01/10 15:31:39;;;;;;;35.47;15.82;;;;;;;2.16;63.97;99762.00;4482374;31;35078;-77
2022/01/10 15:34:25;;;;;;;34.75;16.10;;;;;;;1.61;65.78;99765.59;4499712;31;33494;-76
2022/01/10 15:37:13;;;;;;;32.13;15.77;;;;;;;1.64;65.84;99775.09;4477401;31;34125;-73
2022/01/10 15:40:00;;;;;;;30.77;14.23;;;;;;;1.51;66.18;99777.09;4485924;31;33479;-78
2022/01/10 15:42:47;;;;;;;26.10;13.75;;;;;;;1.28;67.10;99790.75;4470359;31;34726;-78
2022/01/10 15:45:33;;;;;;;28.52;13.93;;;;;;;1.16;67.99;99792.72;4484075;31;33511;-79
2022/01/10 15:48:20;;;;;;;23.27;11.75;;;;;;;1.15;68.11;99794.59;4487118;31;33919;-78
2022/01/10 15:51:07;;;;;;;24.42;10.52;;;;;;;1.23;67.41;99801.47;4483900;31;34633;-78
2022/01/10 15:53:53;;;;;;;27.40;13.13;;;;;;;1.25;66.98;99800.19;4468431;31;34517;-75
2022/01/10 15:56:41;;;;;;;28.75;14.02;;;;;;;1.25;67.01;99815.53;4484809;31;34767;-79
2022/01/10 15:59:28;;;;;;;35.92;16.62;;;;;;;1.31;66.49;99814.56;4474123;31;34910;-75
2022/01/10 16:02:14;;;;;;;31.50;12.52;;;;;;;1.27;66.28;99816.94;4485368;31;35586;-76
2022/01/10 16:05:01;;;;;;;27.37;10.52;;;;;;;1.18;66.51;99822.97;4472028;31;35000;-74
2022/01/10 16:07:48;;;;;;;20.55;9.20;;;;;;;1.05;66.82;99830.34;4469779;31;34969;-73
2022/01/10 16:10:35;;;;;;;19.27;8.30;;;;;;;1.32;65.48;99830.50;4473380;31;34142;-74
2022/01/10 16:13:41;;;;;;;18.92;8.07;;;;;;;0.99;66.85;99846.66;4482823;31;35423;-75
2022/01/10 16:16:28;;;;;;;14.52;6.68;;;;;;;1.02;66.79;99849.69;4480245;31;35599;-73
2022/01/10 16:19:15;;;;;;;15.93;7.57;;;;;;;1.08;67.24;99850.59;4486658;31;35193;-73
2022/01/10 16:22:03;;;;;;;16.45;8.05;;;;;;;0.97;67.70;99856.87;4471237;31;34220;-76
2022/01/10 16:24:49;;;;;;;17.45;7.40;;;;;;;0.99;67.80;99865.56;4473994;31;34505;-77
2022/01/10 16:27:35;;;;;;;17.35;9.02;;;;;;;1.03;67.91;99870.25;4471604;31;35109;-76
2022/01/10 16:30:23;;;;;;;22.45;10.77;;;;;;;1.06;67.95;99874.34;4469885;31;34143;-77
2022/01/10 16:33:10;;;;;;;20.75;10.52;;;;;;;1.02;67.94;99875.88;4471072;31;34102;-80
2022/01/10 16:35:56;;;;;;;32.67;16.17;;;;;;;1.11;67.80;99886.03;4474235;31;34543;-81
2022/01/10 16:38:43;;;;;;;25.60;14.73;;;;;;;1.09;67.78;99884.66;4472989;31;34797;-80
2022/01/10 16:41:29;;;;;;;24.37;12.88;;;;;;;1.05;67.83;99896.97;4481248;31;34358;-80
2022/01/10 16:44:16;;;;;;;18.50;10.77;;;;;;;1.02;67.96;99892.06;4486625;31;33936;-75
2022/01/10 16:47:04;;;;;;;19.87;10.95;;;;;;;0.98;68.32;99890.91;4479403;31;34592;-76
2022/01/10 16:49:50;;;;;;;28.08;14.48;;;;;;;1.06;68.00;99898.62;4464304;31;36135;-75
2022/01/10 16:52:37;;;;;;;27.92;12.55;;;;;;;1.01;68.38;99904.72;4466335;31;34159;-80
2022/01/10 16:55:23;;;;;;;20.48;9.15;;;;;;;0.99;68.61;99900.63;4467657;31;34148;-80
2022/01/10 16:58:13;;;;;;;20.30;9.82;;;;;;;0.95;69.12;99902.19;4467481;31;36156;-81
2022/01/10 17:01:02;;;;;;;18.92;8.68;;;;;;;0.99;68.98;99908.72;4460343;31;35029;-82
2022/01/10 17:03:49;;;;;;;19.40;9.10;;;;;;;0.84;69.64;99917.34;4487010;31;34356;-81
2022/01/10 17:06:36;;;;;;;19.83;10.00;;;;;;;1.05;69.08;99921.25;4485392;31;34119;-81
2022/01/10 17:09:25;;;;;;;27.30;12.25;;;;;;;0.89;69.25;99920.97;4482326;31;33446;-77
2022/01/10 17:12:11;;;;;;;24.48;11.52;;;;;;;1.36;67.48;99936.12;4464293;31;34981;-81
2022/01/10 17:15:04;;;;;;;25.98;11.20;;;;;;;1.66;66.32;99935.84;4490534;31;34499;-82
2022/01/10 17:17:50;;;;;;;25.10;11.30;;;;;;;1.00;68.33;99942.75;4482839;31;34680;-82
2022/01/10 17:20:37;;;;;;;22.20;10.82;;;;;;;0.49;70.63;99936.34;4481762;31;34933;-81
2022/01/10 17:23:23;;;;;;;21.73;11.55;;;;;;;0.42;71.14;99948.03;4478513;31;35326;-82
2022/01/10 17:26:10;;;;;;;19.20;10.13;;;;;;;0.22;72.06;99955.69;4495840;31;35136;-82
2022/01/10 17:28:56;;;;;;;22.80;10.93;;;;;;;0.30;71.79;99955.34;4497066;31;33947;-81
2022/01/10 17:31:45;;;;;;;23.17;10.88;;;;;;;0.06;72.93;99967.16;4494130;31;34429;-83
2022/01/10 17:34:32;;;;;;;37.20;17.37;;;;;;;0.04;73.23;99962.03;4480294;31;35207;-83
2022/01/10 17:37:18;;;;;;;31.45;14.75;;;;;;;0.10;73.27;99965.66;4477703;31;34263;-83
2022/01/10 17:40:05;;;;;;;35.70;16.02;;;;;;;0.33;71.66;99968.34;4485859;31;33325;-81
2022/01/10 17:42:56;;;;;;;27.48;15.05;;;;;;;0.69;70.13;99977.22;4498436;31;34757;-82
2022/01/10 17:45:46;;;;;;;34.55;15.32;;;;;;;0.62;70.23;99976.50;4498853;31;35184;-82
2022/01/10 17:48:35;;;;;;;27.55;14.18;;;;;;;0.26;71.77;99985.69;4468968;31;35316;-83
2022/01/10 17:51:25;;;;;;;31.12;15.80;;;;;;;0.17;72.26;99993.28;4486032;31;33264;-83
2022/01/10 17:54:16;;;;;;;36.80;19.02;;;;;;;0.18;72.77;99992.25;4482230;31;35008;-82
2022/01/10 17:57:03;;;;;;;35.83;17.50;;;;;;;-0.11;73.99;99996.69;4485163;31;35446;-83
2022/01/10 17:59:50;;;;;;;34.28;16.75;;;;;;;-0.19;74.80;100000.53;4495378;31;34497;-83
2022/01/10 18:02:39;;;;;;;33.03;15.60;;;;;;;-0.61;76.88;100005.91;4494199;31;34374;-84
2022/01/10 18:05:26;;;;;;;31.33;14.27;;;;;;;-0.31;75.98;100008.59;4495479;31;34508;-83
2022/01/10 18:08:32;;;;;;;29.30;15.73;;;;;;;-0.19;76.27;100014.00;4485445;31;35304;-82
2022/01/10 18:11:19;;;;;;;36.47;17.12;;;;;;;-1.21;81.42;100024.69;4481867;31;34932;-82
2022/01/10 18:14:06;;;;;;;37.15;16.92;;;;;;;-1.31;82.80;100019.00;4495188;31;34230;-81
2022/01/10 18:16:57;;;;;;;37.20;18.08;;;;;;;-1.38;83.04;100024.44;4477599;31;34257;-83
2022/01/10 18:19:43;;;;;;;41.75;18.15;;;;;;;-0.45;79.40;100026.00;4469206;31;35901;-82
2022/01/10 18:22:37;;;;;;;40.92;20.55;;;;;;;0.00;76.83;100030.91;4482320;31;34473;-83
2022/01/10 18:25:23;;;;;;;45.38;20.45;;;;;;;0.97;72.06;100037.66;4476987;32;35275;-83
2022/01/10 18:28:10;;;;;;;36.92;18.58;;;;;;;1.31;68.94;100031.34;4474221;32;34670;-81
2022/01/10 18:30:57;;;;;;;41.20;19.73;;;;;;;1.30;68.23;100035.09;4480773;32;35981;-82
2022/01/10 18:33:43;;;;;;;38.05;18.67;;;;;;;1.39;68.06;100042.81;4475466;32;35280;-83
2022/01/10 18:36:32;;;;;;;34.10;17.77;;;;;;;1.45;67.36;100049.97;4471650;32;35030;-83
2022/01/10 18:39:19;;;;;;;32.55;17.27;;;;;;;1.35;68.10;100048.72;4478245;32;34397;-83
2022/01/10 18:42:06;;;;;;;35.28;16.77;;;;;;;1.14;69.08;100060.16;4473348;32;35375;-82
2022/01/10 18:44:53;;;;;;;35.60;18.02;;;;;;;1.34;68.63;100052.47;4472154;32;34218;-83
2022/01/10 18:47:39;;;;;;;35.97;18.50;;;;;;;1.40;68.00;100060.69;4474057;32;35064;-82
2022/01/10 18:50:28;;;;;;;38.20;20.25;;;;;;;0.82;70.48;100065.13;4457543;32;34429;-83
2022/01/10 18:53:15;;;;;;;38.35;19.58;;;;;;;1.34;69.21;100075.97;4473650;32;35081;-82
2022/01/10 18:56:02;;;;;;;36.40;18.75;;;;;;;1.21;68.91;100079.72;4465059;32;34454;-82
2022/01/10 18:58:49;;;;;;;38.50;19.33;;;;;;;1.43;68.64;100076.41;4464088;32;34254;-81
2022/01/10 19:01:36;;;;;;;34.97;17.20;;;;;;;1.32;68.60;100081.59;4470415;32;34653;-82
2022/01/10 19:04:25;;;;;;;38.40;17.98;;;;;;;1.30;69.29;100082.88;4455143;32;33500;-82
2022/01/10 19:07:12;;;;;;;34.70;17.52;;;;;;;1.19;68.88;100087.25;4464918;32;35111;-81
2022/01/10 19:09:59;;;;;;;32.92;15.60;;;;;;;1.56;67.93;100087.72;4471761;32;34319;-82
2022/01/10 19:12:47;;;;;;;37.47;16.95;;;;;;;1.78;66.52;100093.28;4466819;32;34655;-81
2022/01/10 19:15:39;;;;;;;37.25;17.42;;;;;;;1.90;65.90;100105.91;4465980;32;35998;-81
2022/01/10 19:18:26;;;;;;;42.15;19.02;;;;;;;1.18;67.44;100101.81;4453344;32;35447;-83
2022/01/10 19:21:17;;;;;;;39.53;19.62;;;;;;;1.50;66.73;100104.06;4468059;32;33958;-82
2022/01/10 19:24:05;;;;;;;62.28;28.95;;;;;;;0.20;73.13;100114.13;4468553;31;34606;-83
2022/01/10 19:26:52;;;;;;;40.12;18.58;;;;;;;0.39;71.55;100109.44;4468108;31;34844;-82
2022/01/10 19:29:38;;;;;;;36.60;18.02;;;;;;;0.17;73.12;100114.56;4472891;31;34112;-83
2022/01/10 19:32:26;;;;;;;43.03;21.55;;;;;;;-0.18;74.82;100117.97;4484804;31;37037;-82
2022/01/10 19:35:16;;;;;;;36.97;19.73;;;;;;;0.17;75.17;100118.09;4461482;31;35577;-82
2022/01/10 19:38:03;;;;;;;40.28;20.17;;;;;;;1.03;70.32;100115.00;4460109;31;35922;-82
2022/01/10 19:40:50;;;;;;;42.50;20.50;;;;;;;1.41;67.74;100121.72;4470635;31;34128;-82
2022/01/10 19:43:36;;;;;;;37.25;18.60;;;;;;;0.74;70.59;100128.37;4480820;31;35457;-82
2022/01/10 19:46:26;;;;;;;39.33;18.73;;;;;;;0.97;69.40;100115.91;4471418;31;35101;-82
2022/01/10 19:49:13;;;;;;;37.63;17.80;;;;;;;1.15;68.89;100126.56;4472385;31;33808;-82
2022/01/10 19:51:59;;;;;;;42.70;19.60;;;;;;;1.28;68.31;100133.59;4490386;31;34660;-82
2022/01/10 19:54:46;;;;;;;39.97;19.17;;;;;;;1.41;67.93;100137.91;4473619;31;34179;-82
2022/01/10 19:57:35;;;;;;;42.15;21.85;;;;;;;1.11;68.86;100144.28;4479794;31;34196;-82
2022/01/10 20:00:25;;;;;;;46.05;21.90;;;;;;;1.25;68.52;100140.31;4473238;31;34962;-83
2022/01/10 20:03:11;;;;;;;46.28;22.40;;;;;;;0.74;69.82;100144.56;4480191;31;35165;-83
2022/01/10 20:05:58;;;;;;;40.92;21.02;;;;;;;0.41;72.64;100140.53;4469440;31;33845;-82
2022/01/10 20:08:48;;;;;;;50.42;22.67;;;;;;;0.24;73.41;100133.34;4471177;31;34446;-83
2022/01/10 20:11:34;;;;;;;40.65;18.92;;;;;;;-0.01;74.57;100135.13;4470516;31;35560;-82
2022/01/10 20:14:20;;;;;;;35.22;18.73;;;;;;;-0.26;76.27;100134.44;4468353;31;34541;-83
2022/01/10 20:17:06;;;;;;;37.15;17.95;;;;;;;0.49;73.15;100131.28;4468487;31;34866;-83
2022/01/10 20:19:53;;;;;;;38.72;18.52;;;;;;;-0.06;74.50;100137.72;4469041;31;35330;-82
2022/01/10 20:22:40;;;;;;;35.97;16.83;;;;;;;0.63;71.91;100143.50;4483315;31;34971;-83
2022/01/10 20:25:27;;;;;;;36.25;16.30;;;;;;;0.18;72.88;100143.16;4483476;31;35482;-83
2022/01/10 20:28:14;;;;;;;36.10;15.93;;;;;;;0.41;71.98;100151.31;4479910;31;35062;-82
2022/01/10 20:31:00;;;;;;;32.90;16.10;;;;;;;0.50;71.74;100154.47;4490670;31;34361;-83
2022/01/10 20:33:47;;;;;;;32.90;15.02;;;;;;;0.35;72.39;100149.53;4467893;31;35624;-84
2022/01/10 20:36:33;;;;;;;33.80;16.45;;;;;;;0.21;73.68;100161.56;4462051;31;33255;-83
2022/01/10 20:39:22;;;;;;;36.65;16.25;;;;;;;0.53;72.50;100164.81;4463790;31;34834;-83
2022/01/10 20:42:08;;;;;;;34.60;16.55;;;;;;;0.82;71.40;100167.66;4468864;31;34587;-84
2022/01/10 20:44:55;;;;;;;35.42;16.23;;;;;;;0.48;71.43;100167.38;4469956;31;35834;-82
2022/01/10 20:47:42;;;;;;;35.40;16.77;;;;;;;0.62;72.46;100176.06;4467513;31;34431;-82
2022/01/10 20:50:29;;;;;;;33.97;16.45;;;;;;;-0.19;75.71;100178.28;4466775;31;33159;-85
2022/01/10 20:53:16;;;;;;;32.08;16.10;;;;;;;0.56;72.26;100180.50;4481669;31;34368;-81
2022/01/10 20:56:03;;;;;;;32.25;13.68;;;;;;;0.50;72.39;100180.63;4468160;31;35921;-81
2022/01/10 20:58:50;;;;;;;24.65;12.15;;;;;;;-0.01;72.84;100178.25;4481973;31;35103;-81
2022/01/10 21:01:36;;;;;;;29.77;13.50;;;;;;;0.31;70.14;100183.37;4472561;31;35173;-83
2022/01/10 21:04:24;;;;;;;30.75;14.13;;;;;;;-0.47;74.86;100186.91;4485199;31;34638;-84
2022/01/10 21:07:11;;;;;;;24.90;12.20;;;;;;;0.52;70.70;100184.75;4471121;31;35678;-83
2022/01/10 21:09:57;;;;;;;22.45;10.40;;;;;;;0.09;70.80;100184.97;4471699;31;34039;-83
2022/01/10 21:12:44;;;;;;;20.65;10.00;;;;;;;-0.19;70.29;100188.25;4471979;31;34696;-83
2022/01/10 21:15:31;;;;;;;22.08;10.82;;;;;;;-0.01;71.24;100189.00;4482013;31;34401;-84
2022/01/10 21:18:17;;;;;;;26.10;12.23;;;;;;;0.02;71.34;100205.78;4474151;31;34873;-83
2022/01/10 21:21:09;;;;;;;29.75;14.45;;;;;;;-0.64;73.53;100207.41;4486698;31;34229;-83
2022/01/10 21:23:55;;;;;;;37.25;16.60;;;;;;;-0.44;72.98;100191.03;4472115;31;33948;-84
2022/01/10 21:26:43;;;;;;;35.45;15.43;;;;;;;-0.18;72.40;100204.16;4472517;31;35507;-84
2022/01/10 21:29:30;;;;;;;33.17;15.13;;;;;;;0.44;69.27;100210.16;4468867;31;34962;-83
2022/01/10 21:32:17;;;;;;;32.35;13.40;;;;;;;0.79;66.80;100211.28;4488954;31;34567;-83
2022/01/10 21:35:04;;;;;;;29.23;13.88;;;;;;;0.96;66.17;100216.81;4470368;31;34737;-83
2022/01/10 21:37:53;;;;;;;31.27;13.27;;;;;;;0.81;66.85;100206.47;4471678;31;34640;-83
2022/01/10 21:40:40;;;;;;;29.50;12.70;;;;;;;1.10;65.27;100213.66;4471877;31;35716;-84
2022/01/10 21:43:26;;;;;;;29.75;13.93;;;;;;;1.23;64.76;100218.00;4461098;31;34565;-84
2022/01/10 21:46:12;;;;;;;27.35;11.98;;;;;;;1.08;64.70;100215.78;4469786;31;35034;-84
2022/01/10 21:48:59;;;;;;;23.67;10.93;;;;;;;1.34;64.32;100219.06;4483243;31;34499;-84
2022/01/10 21:51:45;;;;;;;28.23;11.95;;;;;;;0.50;65.83;100218.38;4474680;31;34939;-83
2022/01/10 21:54:32;;;;;;;28.20;13.20;;;;;;;0.76;66.28;100225.22;4492678;31;36193;-83
2022/01/10 21:57:18;;;;;;;25.30;13.23;;;;;;;1.20;64.32;100229.28;4485297;31;33732;-83
